Time;durP1;ratioP1;P1;durP2;ratioP2;P2;SDS_P1;SDS_P2;PMS_P1;PMS_P2;Temp;Humidity;BMP_temperature;BMP_pressure;BME280_temperature;BME280_humidity;BME280_pressure;Samples;Min_cycle;Max_cycle;Signal;HPM_P1;HPM_P2
2023/03/27 00:00:15;;;;;;;;;3.00;2.00;;;;;10.28;52.63;101209.44;5102828;27;45299;-64
2023/03/27 00:02:40;;;;;;;;;6.00;3.25;;;;;10.26;52.42;101211.19;5103235;27;45229;-64
2023/03/27 00:05:06;;;;;;;;;5.25;3.75;;;;;10.24;52.54;101210.34;5102826;27;45475;-64
2023/03/27 00:07:34;;;;;;;;;5.00;2.50;;;;;10.25;52.23;101223.47;5102735;27;46291;-64
2023/03/27 00:10:00;;;;;;;;;3.75;3.75;;;;;10.23;52.22;101233.09;5101126;27;45495;-64
2023/03/27 00:12:26;;;;;;;;;3.50;3.00;;;;;10.24;52.40;101239.25;5103048;27;45329;-64
2023/03/27 00:14:52;;;;;;;;;4.00;2.25;;;;;10.23;52.39;101235.72;5102671;27;45416;-64
2023/03/27 00:17:18;;;;;;;;;4.00;2.50;;;;;10.21;52.42;101248.00;5102502;27;45436;-64
2023/03/27 00:19:43;;;;;;;;;3.00;2.00;;;;;10.21;52.42;101252.38;5102474;27;45421;-64
2023/03/27 00:22:09;;;;;;;;;5.50;2.75;;;;;10.21;52.26;101273.38;5103132;27;45322;-64
2023/03/27 00:24:35;;;;;;;;;3.00;2.25;;;;;10.20;52.27;101276.88;5102517;27;45315;-64
2023/03/27 00:27:01;;;;;;;;;4.00;2.00;;;;;10.18;52.42;101273.41;5102478;27;45930;-64
2023/03/27 00:29:27;;;;;;;;;3.00;3.00;;;;;10.20;52.35;101290.91;5102295;27;45406;-64
2023/03/27 00:31:52;;;;;;;;;3.00;3.00;;;;;10.21;52.42;101286.50;5102664;27;45297;-64
2023/03/27 00:34:18;;;;;;;;;2.75;2.75;;;;;10.20;52.46;101297.88;5100834;27;45311;-64
2023/03/27 00:36:49;;;;;;;;;2.00;1.50;;;;;10.19;52.50;101298.78;5102425;27;45313;-64
2023/03/27 00:39:15;;;;;;;;;4.25;3.00;;;;;10.17;52.25;101305.78;5102150;27;45290;-64
2023/03/27 00:41:40;;;;;;;;;6.50;4.25;;;;;10.14;52.29;101311.03;5102446;27;45210;-64
2023/03/27 00:44:26;;;;;;;;;4.25;2.25;;;;;10.14;52.39;101313.66;5102115;27;45220;-64
2023/03/27 00:46:54;;;;;;;;;4.00;2.00;;;;;10.11;52.44;101321.56;5102029;27;45501;-64
2023/03/27 00:49:21;;;;;;;;;2.75;1.25;;;;;10.11;52.18;101329.44;5083931;27;45335;-64
2023/03/27 00:51:47;;;;;;;;;2.75;2.00;;;;;10.09;52.16;101337.34;5096838;27;45270;-64
2023/03/27 00:54:25;;;;;;;;;3.00;1.00;;;;;10.02;52.07;101333.84;5092892;27;45857;-64
2023/03/27 00:56:51;;;;;;;;;2.25;1.00;;;;;10.06;52.01;101343.47;5102083;27;45340;-64
2023/03/27 00:59:22;;;;;;;;;3.75;2.00;;;;;10.05;52.04;101349.59;5102221;27;45366;-64
2023/03/27 01:01:47;;;;;;;;;1.75;1.75;;;;;10.01;51.96;101347.88;5101908;27;45333;-64
2023/03/27 01:04:13;;;;;;;;;3.00;2.00;;;;;10.01;51.99;101355.75;5101892;27;45317;-64
2023/03/27 01:06:40;;;;;;;;;2.25;2.00;;;;;9.99;52.09;101359.25;5101749;27;46058;-64
2023/03/27 01:09:08;;;;;;;;;2.00;2.00;;;;;9.94;52.04;101364.50;5101805;27;45302;-64
2023/03/27 01:11:51;;;;;;;;;1.00;1.00;;;;;9.90;52.03;101368.03;5101755;27;45317;-64
2023/03/27 01:14:22;;;;;;;;;3.25;1.50;;;;;9.91;51.87;101375.00;5101715;27;45249;-64
2023/03/27 01:17:17;;;;;;;;;2.75;1.25;;;;;9.86;51.91;101371.50;5101776;27;46101;-64
2023/03/27 01:19:52;;;;;;;;;1.00;1.00;;;;;9.85;52.12;101385.50;5101385;27;45331;-64
2023/03/27 01:22:39;;;;;;;;;5.75;2.00;;;;;9.81;51.83;101382.03;5100545;27;45350;-64
2023/03/27 01:25:33;;;;;;;;;1.25;1.25;;;;;9.79;51.81;101393.41;5101526;27;45276;-64
2023/03/27 01:28:09;;;;;;;;;2.75;1.75;;;;;9.75;51.76;101403.03;5101422;27;45394;-64
2023/03/27 01:31:05;;;;;;;;;2.75;2.75;;;;;9.72;51.87;101403.91;5101395;27;45208;-64
2023/03/27 01:33:49;;;;;;;;;1.50;1.25;;;;;9.69;51.73;101409.13;5101500;27;45357;-64
2023/03/27 01:36:44;;;;;;;;;2.25;1.00;;;;;9.65;51.88;101409.13;5101460;27;45500;-64
2023/03/27 01:39:27;;;;;;;;;2.50;1.00;;;;;9.62;51.64;101412.63;5100887;27;47071;-64
2023/03/27 01:41:55;;;;;;;;;3.75;2.25;;;;;9.60;51.81;101412.63;5101424;27;45287;-64
2023/03/27 01:44:39;;;;;;;;;3.00;2.00;;;;;9.56;51.47;101404.78;5101458;27;45424;-64
2023/03/27 01:47:15;;;;;;;;;3.00;1.50;;;;;9.53;51.87;101417.88;5101129;27;45172;-63
2023/03/27 01:49:48;;;;;;;;;4.75;2.00;;;;;9.48;51.66;101411.75;5072521;27;45420;-63
2023/03/27 01:52:17;;;;;;;;;2.75;1.00;;;;;9.48;51.46;101424.88;5098946;27;45340;-64
2023/03/27 01:54:54;;;;;;;;;3.50;2.00;;;;;9.44;51.39;101427.47;5093378;27;45326;-63
2023/03/27 01:57:26;;;;;;;;;2.25;1.00;;;;;9.40;51.74;101427.50;5101377;27;45360;-64
2023/03/27 01:59:58;;;;;;;;;1.25;1.00;;;;;9.35;51.55;101431.84;5100745;27;45375;-64
2023/03/27 02:02:28;;;;;;;;;2.00;1.25;;;;;9.34;51.63;101437.97;5099408;27;45455;-64
2023/03/27 02:05:00;;;;;;;;;2.50;2.50;;;;;9.31;51.66;101437.94;5101045;27;45240;-63
2023/03/27 02:07:33;;;;;;;;;1.50;1.50;;;;;9.27;51.35;101430.09;5101032;27;45271;-64
2023/03/27 02:10:04;;;;;;;;;2.00;1.00;;;;;9.27;51.79;101440.56;5099186;27;45984;-64
2023/03/27 02:12:33;;;;;;;;;5.75;2.00;;;;;9.26;51.70;101445.81;5100855;27;45283;-64
2023/03/27 02:15:07;;;;;;;;;1.75;1.75;;;;;9.23;51.67;101443.19;5100848;27;45336;-64
2023/03/27 02:17:38;;;;;;;;;4.00;3.00;;;;;9.22;51.76;101451.91;5100706;27;45342;-64
2023/03/27 02:20:15;;;;;;;;;2.75;1.50;;;;;9.22;51.76;101459.78;5098719;27;46111;-64
2023/03/27 02:22:42;;;;;;;;;3.00;2.00;;;;;9.21;51.44;101460.69;5100470;27;45356;-64
2023/03/27 02:25:20;;;;;;;;;2.50;1.00;;;;;9.19;51.36;101462.41;5099621;27;45426;-63
2023/03/27 02:27:48;;;;;;;;;2.50;2.00;;;;;9.17;51.69;101470.28;5100537;27;45383;-64
2023/03/27 02:30:28;;;;;;;;;1.25;1.25;;;;;9.16;51.44;101467.66;5100512;27;46301;-64
2023/03/27 02:33:04;;;;;;;;;1.50;1.00;;;;;9.14;51.69;101467.63;5100212;27;45306;-64
2023/03/27 02:35:34;;;;;;;;;1.00;1.00;;;;;9.10;51.46;101469.34;5100567;27;45261;-64
2023/03/27 02:38:42;;;;;;;;;3.25;2.50;;;;;9.14;51.64;101479.88;5099297;27;45380;-64
2023/03/27 02:41:47;;;;;;;;;4.50;2.50;;;;;9.13;51.80;101478.13;5099319;27;45333;-64
2023/03/27 02:44:21;;;;;;;;;2.00;1.00;;;;;9.13;51.46;101492.09;5096162;27;45311;-64
2023/03/27 02:47:03;;;;;;;;;6.75;1.50;;;;;9.12;51.88;101493.00;5099028;27;45365;-64
2023/03/27 02:49:36;;;;;;;;;5.00;3.75;;;;;9.13;51.67;101491.22;5080671;27;45237;-64
2023/03/27 02:52:07;;;;;;;;;0.50;0.00;;;;;9.10;51.81;101492.09;5096785;27;46394;-64
2023/03/27 02:54:38;;;;;;;;;1.75;1.75;;;;;9.09;51.87;101493.84;5089550;27;45371;-64
2023/03/27 02:57:10;;;;;;;;;3.00;1.00;;;;;9.08;51.83;101492.09;5100309;27;45399;-64
2023/03/27 02:59:44;;;;;;;;;1.25;1.25;;;;;9.13;51.73;101493.84;5100409;27;45153;-64
2023/03/27 03:02:16;;;;;;;;;2.00;2.00;;;;;9.13;51.82;101502.59;5099824;27;46035;-64
2023/03/27 03:04:49;;;;;;;;;3.75;2.75;;;;;9.14;52.00;101500.84;5100033;27;45342;-64
2023/03/27 03:07:14;;;;;;;;;2.50;1.75;;;;;9.15;52.10;101507.84;5100421;27;45463;-64
2023/03/27 03:09:41;;;;;;;;;4.00;2.00;;;;;9.12;52.13;101503.47;5099831;27;45382;-64
2023/03/27 03:12:06;;;;;;;;;3.50;1.50;;;;;9.16;51.86;101507.84;5100234;27;45390;-64
2023/03/27 03:14:38;;;;;;;;;2.50;1.00;;;;;9.14;52.03;101508.72;5099966;27;45407;-64
2023/03/27 03:17:04;;;;;;;;;2.75;1.75;;;;;9.17;51.79;101529.69;5099048;27;45294;-64
2023/03/27 03:19:31;;;;;;;;;2.00;2.00;;;;;9.16;51.93;101520.09;5098200;27;45395;-64
2023/03/27 03:21:56;;;;;;;;;3.25;2.00;;;;;9.14;51.99;101521.84;5100101;27;46926;-63
2023/03/27 03:24:21;;;;;;;;;4.50;2.25;;;;;9.16;51.95;101530.59;5099719;27;45252;-64
2023/03/27 03:26:51;;;;;;;;;2.50;2.25;;;;;9.16;51.93;101531.47;5100290;27;45290;-64
2023/03/27 03:29:20;;;;;;;;;4.00;1.50;;;;;9.15;51.82;101540.19;5099798;27;45606;-64
2023/03/27 03:31:45;;;;;;;;;2.25;1.00;;;;;9.15;51.82;101548.06;5102012;27;46244;-64
2023/03/27 03:34:17;;;;;;;;;2.00;1.00;;;;;9.13;52.03;101554.16;5103100;27;45329;-64
2023/03/27 03:36:43;;;;;;;;;0.50;0.00;;;;;9.11;52.03;101549.78;5092798;27;45257;-64
2023/03/27 03:39:11;;;;;;;;;4.25;1.25;;;;;9.10;51.96;101557.66;5086816;27;45461;-64
2023/03/27 03:41:36;;;;;;;;;2.50;2.00;;;;;9.09;51.93;101551.53;5103164;27;45340;-64
2023/03/27 03:44:02;;;;;;;;;3.75;2.00;;;;;9.08;51.61;101555.03;5085056;27;45407;-64
2023/03/27 03:46:27;;;;;;;;;1.25;1.25;;;;;9.06;52.07;101550.66;5094173;27;45388;-64
2023/03/27 03:48:52;;;;;;;;;2.00;2.00;;;;;9.05;51.95;101562.84;5088480;27;45460;-64
2023/03/27 03:51:18;;;;;;;;;2.00;2.00;;;;;9.03;51.77;101563.72;5094067;27;46336;-64
2023/03/27 03:53:43;;;;;;;;;2.25;1.00;;;;;9.03;51.94;101571.59;5093908;27;51708;-63
2023/03/27 03:56:08;;;;;;;;;3.00;1.75;;;;;9.02;51.95;101575.06;5103194;27;45311;-63
2023/03/27 03:58:34;;;;;;;;;1.25;1.00;;;;;9.01;51.92;101578.59;5102725;27;52392;-64
2023/03/27 04:01:01;;;;;;;;;4.75;3.00;;;;;8.99;51.75;101578.56;5102952;27;46746;-64
2023/03/27 04:03:30;;;;;;;;;2.00;1.75;;;;;8.97;51.97;101582.94;5102809;27;45532;-63
2023/03/27 04:05:57;;;;;;;;;2.00;2.00;;;;;8.95;51.78;101579.41;5103095;27;45279;-63
2023/03/27 04:08:23;;;;;;;;;3.00;3.00;;;;;8.94;51.97;101596.00;5102816;27;45330;-64
2023/03/27 04:10:48;;;;;;;;;2.25;2.25;;;;;8.93;52.11;101594.25;5102658;27;45310;-63
2023/03/27 04:13:14;;;;;;;;;2.00;0.25;;;;;8.92;51.93;101605.63;5102867;27;45474;-64
2023/03/27 04:15:39;;;;;;;;;7.00;2.75;;;;;8.91;51.75;101604.72;5102997;27;45301;-63
2023/03/27 04:18:05;;;;;;;;;2.00;1.25;;;;;8.89;51.94;101613.44;5102568;27;45263;-64
2023/03/27 04:20:33;;;;;;;;;3.00;1.00;;;;;8.86;52.17;101608.19;5102503;27;48259;-64
2023/03/27 04:23:01;;;;;;;;;4.25;2.00;;;;;8.88;51.93;101617.84;5102627;27;45251;-63
2023/03/27 04:25:27;;;;;;;;;4.50;1.75;;;;;8.86;51.90;101621.31;5102720;27;45345;-63
2023/03/27 04:27:53;;;;;;;;;2.00;2.00;;;;;8.83;52.03;101629.13;5102470;27;45550;-63
2023/03/27 04:30:24;;;;;;;;;3.00;3.00;;;;;8.86;51.96;101634.41;5102493;27;45387;-64
2023/03/27 04:32:51;;;;;;;;;1.00;1.00;;;;;8.84;51.96;101636.13;5102285;27;45514;-63
2023/03/27 04:35:18;;;;;;;;;3.00;2.00;;;;;8.85;51.80;101640.50;5101232;27;45450;-64
2023/03/27 04:37:45;;;;;;;;;1.25;1.25;;;;;8.86;51.96;101647.53;5101192;27;45484;-63
2023/03/27 04:40:12;;;;;;;;;5.50;3.00;;;;;8.86;51.95;101655.38;5102045;27;45305;-64
2023/03/27 04:42:43;;;;;;;;;1.00;1.00;;;;;8.84;51.97;101650.13;5100691;27;45460;-63
2023/03/27 04:45:16;;;;;;;;;3.00;1.25;;;;;8.86;52.03;101655.38;5102329;27;45400;-63
2023/03/27 04:47:41;;;;;;;;;3.00;2.00;;;;;8.85;51.92;101651.00;5097813;27;45475;-64
2023/03/27 04:50:08;;;;;;;;;3.00;2.00;;;;;8.85;52.13;101657.09;5083126;27;45508;-64
2023/03/27 04:52:34;;;;;;;;;3.00;1.75;;;;;8.86;52.10;101660.63;5098675;27;45345;-63
2023/03/27 04:55:03;;;;;;;;;4.50;1.25;;;;;8.87;52.09;101667.63;5096264;27;45427;-63
2023/03/27 04:57:30;;;;;;;;;2.00;0.75;;;;;8.87;52.10;101663.25;5102290;27;45255;-64
2023/03/27 05:00:00;;;;;;;;;12.75;11.75;;;;;8.87;52.30;101672.88;5101656;27;45322;-64
2023/03/27 05:02:26;;;;;;;;;2.75;2.25;;;;;8.89;52.10;101678.97;5101891;27;45215;-63
2023/03/27 05:04:57;;;;;;;;;2.25;2.25;;;;;8.86;52.32;101684.22;5102016;27;45439;-63
2023/03/27 05:07:23;;;;;;;;;2.00;2.00;;;;;8.89;52.28;101687.75;5102131;27;45245;-64
2023/03/27 05:09:49;;;;;;;;;3.25;1.25;;;;;8.87;51.84;101680.75;5101552;27;45416;-62
2023/03/27 05:12:14;;;;;;;;;4.00;1.75;;;;;8.87;51.81;101693.84;5102179;27;45259;-63
2023/03/27 05:14:39;;;;;;;;;1.75;0.00;;;;;8.86;52.02;101682.47;5101908;27;45849;-63
2023/03/27 05:17:05;;;;;;;;;3.00;3.00;;;;;8.89;52.24;101695.59;5101735;27;45163;-63
2023/03/27 05:19:30;;;;;;;;;1.75;1.75;;;;;8.88;52.34;101699.09;5101433;27;45961;-63
2023/03/27 05:21:56;;;;;;;;;2.50;2.50;;;;;8.90;52.39;101696.47;5101670;27;50280;-62
2023/03/27 05:24:21;;;;;;;;;0.50;0.50;;;;;8.90;52.16;101697.34;5100588;27;45172;-62
2023/03/27 05:26:47;;;;;;;;;1.75;1.75;;;;;8.91;52.16;101703.47;5101894;27;45565;-63
2023/03/27 05:29:12;;;;;;;;;2.50;1.00;;;;;8.92;52.22;101700.00;5101521;27;47042;-63
2023/03/27 05:31:38;;;;;;;;;2.00;2.00;;;;;8.92;52.17;101700.88;5102023;27;45315;-62
2023/03/27 05:34:04;;;;;;;;;0.75;0.00;;;;;8.94;52.14;101721.84;5101443;27;45460;-63
2023/03/27 05:36:30;;;;;;;;;2.00;1.00;;;;;8.95;52.15;101710.50;5101960;27;45283;-62
2023/03/27 05:38:56;;;;;;;;;1.00;1.00;;;;;8.93;52.21;101710.50;5100965;27;45444;-62
2023/03/27 05:41:23;;;;;;;;;1.00;1.00;;;;;8.94;52.39;101712.25;5101488;27;45323;-65
2023/03/27 05:43:49;;;;;;;;;2.00;2.00;;;;;8.96;52.35;101714.88;5101550;27;45389;-62
2023/03/27 05:46:15;;;;;;;;;1.25;1.00;;;;;8.92;52.32;101718.34;5101583;27;45358;-62
2023/03/27 05:48:40;;;;;;;;;1.00;1.00;;;;;8.96;52.45;101728.00;5087738;27;45449;-62
2023/03/27 05:51:11;;;;;;;;;1.75;1.50;;;;;8.95;52.19;101726.22;5090285;27;45267;-63
2023/03/27 05:53:38;;;;;;;;;3.50;2.00;;;;;8.98;52.12;101735.84;5098542;27;45365;-63
2023/03/27 05:56:05;;;;;;;;;4.75;2.25;;;;;8.99;52.07;101742.88;5101184;27;45330;-63
2023/03/27 05:58:30;;;;;;;;;2.00;2.00;;;;;8.89;52.10;101724.44;5100730;27;47542;-63
2023/03/27 06:00:55;;;;;;;;;3.00;2.75;;;;;9.00;52.17;101750.72;5099796;27;48469;-63
2023/03/27 06:03:22;;;;;;;;;3.75;3.00;;;;;9.01;52.32;101749.88;5099207;27;54223;-63
2023/03/27 06:05:48;;;;;;;;;2.25;2.00;;;;;9.02;52.05;101753.38;5099934;27;45720;-62
2023/03/27 06:08:14;;;;;;;;;6.00;2.25;;;;;9.01;52.21;101764.75;5099482;27;47293;-62
2023/03/27 06:10:42;;;;;;;;;4.25;3.00;;;;;9.02;52.12;101759.50;5101246;27;45309;-62
2023/03/27 06:13:11;;;;;;;;;2.25;1.25;;;;;9.01;52.18;101765.59;5101079;27;45400;-63
2023/03/27 06:15:40;;;;;;;;;2.25;1.75;;;;;9.03;52.11;101770.84;5101038;27;45268;-63
2023/03/27 06:18:05;;;;;;;;;2.00;2.00;;;;;9.04;52.15;101777.88;5100435;27;45427;-62
2023/03/27 06:20:31;;;;;;;;;4.25;3.00;;;;;9.02;52.25;101772.63;5100676;27;45325;-63
2023/03/27 06:22:58;;;;;;;;;3.50;1.75;;;;;9.03;52.05;101774.38;5101086;27;45371;-63
2023/03/27 06:25:25;;;;;;;;;1.75;1.75;;;;;9.04;51.88;101773.50;5100811;27;45444;-63
2023/03/27 06:27:52;;;;;;;;;3.50;1.00;;;;;9.06;52.12;101789.25;5100563;27;47203;-63
2023/03/27 06:30:20;;;;;;;;;5.00;3.00;;;;;9.06;52.02;101786.63;5100542;27;45239;-63
2023/03/27 06:32:48;;;;;;;;;3.75;2.00;;;;;9.07;52.45;101786.63;5100388;27;45394;-63
2023/03/27 06:35:14;;;;;;;;;2.50;1.50;;;;;9.09;52.57;101792.78;5100635;27;45449;-63
2023/03/27 06:37:41;;;;;;;;;2.75;1.00;;;;;9.10;52.14;101797.13;5100412;27;45365;-63
2023/03/27 06:40:09;;;;;;;;;7.00;3.75;;;;;9.03;52.51;101782.25;5100251;27;45361;-63
2023/03/27 06:42:35;;;;;;;;;3.50;2.50;;;;;9.13;52.29;101803.28;5100199;27;45322;-63
2023/03/27 06:45:04;;;;;;;;;3.25;3.25;;;;;9.15;52.43;101809.44;5100124;27;45765;-62
2023/03/27 06:47:29;;;;;;;;;2.00;2.00;;;;;9.14;52.65;101813.78;5097180;27;46814;-62
2023/03/27 06:49:55;;;;;;;;;4.50;2.00;;;;;9.16;52.24;101813.81;5079485;28;45212;-62
2023/03/27 06:52:20;;;;;;;;;5.00;3.00;;;;;9.14;52.36;101805.06;5097940;27;45153;-62
2023/03/27 06:54:46;;;;;;;;;2.50;2.50;;;;;9.18;52.31;101823.47;5092395;27;45545;-63
2023/03/27 06:57:12;;;;;;;;;3.25;1.75;;;;;9.18;52.55;101822.56;5098531;27;46783;-63
2023/03/27 06:59:37;;;;;;;;;3.25;2.75;;;;;8.89;52.43;101768.13;5099588;27;45211;-63
2023/03/27 07:02:03;;;;;;;;;6.25;2.00;;;;;9.18;52.59;101815.59;5099812;27;45238;-64
2023/03/27 07:04:28;;;;;;;;;1.00;1.00;;;;;9.14;52.40;101811.16;5100073;27;45226;-63
2023/03/27 07:06:54;;;;;;;;;4.75;2.25;;;;;9.23;52.48;101826.09;5103386;27;45334;-63
2023/03/27 07:09:19;;;;;;;;;2.00;2.00;;;;;9.25;52.69;101834.88;5103366;27;45216;-63
2023/03/27 07:11:44;;;;;;;;;5.00;4.00;;;;;9.26;52.31;101836.63;5103516;27;45530;-63
2023/03/27 07:14:10;;;;;;;;;14.00;10.25;;;;;9.29;52.16;101839.28;5103604;27;45320;-63
2023/03/27 07:16:36;;;;;;;;;3.25;2.75;;;;;9.30;52.29;101840.16;5103444;27;45457;-64
2023/03/27 07:19:01;;;;;;;;;5.00;3.75;;;;;9.32;52.66;101847.19;5101790;27;45294;-63
2023/03/27 07:21:26;;;;;;;;;4.00;3.00;;;;;9.33;52.37;101845.44;5103415;27;45407;-63
2023/03/27 07:23:52;;;;;;;;;2.00;2.00;;;;;9.33;52.57;101851.53;5103657;27;45270;-63
2023/03/27 07:26:17;;;;;;;;;1.75;1.00;;;;;9.36;52.58;101853.34;5103098;27;45329;-63
2023/03/27 07:28:43;;;;;;;;;4.00;2.00;;;;;9.39;52.40;101850.72;5103279;27;45341;-63
2023/03/27 07:31:12;;;;;;;;;3.75;2.75;;;;;9.33;52.32;101845.44;5103307;27;45312;-63
2023/03/27 07:33:38;;;;;;;;;1.50;1.25;;;;;9.44;52.46;101860.38;5101390;27;45549;-63
2023/03/27 07:36:08;;;;;;;;;2.00;2.00;;;;;9.43;52.13;101856.03;5101585;27;46140;-64
2023/03/27 07:38:34;;;;;;;;;2.00;2.00;;;;;9.48;52.22;101863.03;5101296;27;45382;-63
2023/03/27 07:41:05;;;;;;;;;3.50;2.50;;;;;9.48;52.49;101857.78;5103154;27;45267;-63
2023/03/27 07:43:32;;;;;;;;;10.75;10.25;;;;;9.52;52.28;101865.72;5103091;27;45450;-63
2023/03/27 07:45:57;;;;;;;;;5.50;5.00;;;;;9.55;52.32;101867.50;5119014;27;46320;-63
2023/03/27 07:48:22;;;;;;;;;4.25;3.25;;;;;9.58;52.28;101878.91;5092200;27;56060;-63
2023/03/27 07:50:48;;;;;;;;;2.75;1.25;;;;;9.60;52.27;101871.88;5082876;27;45390;-63
2023/03/27 07:53:13;;;;;;;;;2.00;2.00;;;;;9.61;52.40;101849.16;5082627;27;45294;-63
2023/03/27 07:55:40;;;;;;;;;1.00;1.00;;;;;9.64;52.17;101856.19;5102618;27;46136;-63
2023/03/27 07:58:06;;;;;;;;;1.00;1.00;;;;;9.64;52.21;101853.56;5103217;27;45223;-63
2023/03/27 08:00:34;;;;;;;;;1.00;1.00;;;;;9.66;52.08;101852.69;5102891;27;45300;-63
2023/03/27 08:03:07;;;;;;;;;1.00;1.00;;;;;9.68;51.91;101864.06;5102214;27;45512;-63
2023/03/27 08:05:32;;;;;;;;;0.50;0.50;;;;;9.71;51.82;101861.47;5102863;27;45299;-63
2023/03/27 08:07:58;;;;;;;;;0.00;0.00;;;;;9.74;51.65;101869.38;5102872;27;45344;-63
2023/03/27 08:10:24;;;;;;;;;1.00;1.00;;;;;9.72;51.67;101862.34;5103020;27;45286;-64
2023/03/27 08:12:50;;;;;;;;;1.00;1.00;;;;;9.76;51.74;101874.66;5102692;27;45503;-64
2023/03/27 08:15:16;;;;;;;;;2.00;1.00;;;;;9.79;51.64;101876.41;5102725;27;46360;-63
2023/03/27 08:17:41;;;;;;;;;0.75;0.00;;;;;9.79;51.35;101873.78;5101355;27;45388;-64
2023/03/27 08:20:14;;;;;;;;;1.00;0.00;;;;;9.83;51.19;101892.19;5102847;27;45348;-63
2023/03/27 08:22:40;;;;;;;;;1.00;1.00;;;;;9.85;51.11;101890.47;5102539;27;45287;-64
2023/03/27 08:25:07;;;;;;;;;0.00;0.00;;;;;9.88;51.18;101889.59;5102514;27;45375;-64
2023/03/27 08:27:34;;;;;;;;;0.00;0.00;;;;;9.88;51.19;101895.72;5102356;27;45627;-64
2023/03/27 08:30:00;;;;;;;;;0.25;0.00;;;;;9.93;50.99;101899.25;5102183;27;45287;-64
2023/03/27 08:32:26;;;;;;;;;0.00;0.00;;;;;9.93;50.64;101901.00;5100739;27;45552;-64
2023/03/27 08:34:51;;;;;;;;;0.75;0.75;;;;;9.98;50.80;101907.16;5102463;27;46049;-64
2023/03/27 08:37:17;;;;;;;;;2.25;1.00;;;;;10.02;50.75;101908.94;5102434;27;45283;-65
2023/03/27 08:39:45;;;;;;;;;2.00;2.00;;;;;10.03;50.48;101908.06;5102572;27;45256;-64
2023/03/27 08:42:16;;;;;;;;;2.00;0.00;;;;;10.07;50.45;101904.63;5102476;27;45349;-64
2023/03/27 08:44:43;;;;;;;;;1.00;1.00;;;;;10.08;50.38;101916.88;5102415;27;45253;-64
2023/03/27 08:47:15;;;;;;;;;2.00;1.00;;;;;10.14;50.59;101917.75;5102184;27;45234;-64
2023/03/27 08:49:49;;;;;;;;;4.00;1.00;;;;;10.19;50.40;101932.72;5072637;28;45251;-64
2023/03/27 08:52:22;;;;;;;;;1.50;1.50;;;;;10.25;50.67;101929.22;5099983;27;45270;-64
2023/03/27 08:54:56;;;;;;;;;1.00;1.00;;;;;10.31;50.60;101934.50;5095165;27;46199;-64
2023/03/27 08:57:23;;;;;;;;;2.00;2.00;;;;;10.37;50.71;101925.84;5102378;27;45296;-64
2023/03/27 08:59:54;;;;;;;;;1.00;1.00;;;;;10.42;50.55;101937.25;5102159;27;45282;-64
2023/03/27 09:02:47;;;;;;;;;3.00;1.75;;;;;10.51;50.74;101941.69;5101923;27;45374;-65
2023/03/27 09:05:24;;;;;;;;;2.25;2.00;;;;;10.59;50.56;101946.97;5101938;27;45476;-65
2023/03/27 09:08:07;;;;;;;;;1.00;1.00;;;;;10.66;50.66;101954.03;5101844;27;45456;-65
2023/03/27 09:10:48;;;;;;;;;0.75;0.75;;;;;10.71;50.77;101961.03;5101956;27;45420;-64
2023/03/27 09:13:16;;;;;;;;;2.25;2.00;;;;;10.79;50.46;101969.00;5101899;27;45297;-64
2023/03/27 09:16:03;;;;;;;;;1.00;1.00;;;;;10.82;50.36;101971.63;5101882;27;46405;-64
2023/03/27 09:18:37;;;;;;;;;1.25;1.25;;;;;10.88;50.36;101970.78;5101736;27;45275;-64
2023/03/27 09:21:12;;;;;;;;;0.00;0.00;;;;;10.95;50.39;101977.81;5101802;27;45358;-64
2023/03/27 09:23:42;;;;;;;;;5.00;2.00;;;;;10.99;50.39;101984.84;5100411;27;45455;-65
2023/03/27 09:26:18;;;;;;;;;1.25;1.00;;;;;11.07;50.30;101987.50;5101345;27;45316;-65
2023/03/27 09:29:08;;;;;;;;;0.25;0.25;;;;;11.13;50.23;101990.16;5100450;27;45345;-65
2023/03/27 09:31:47;;;;;;;;;1.25;0.50;;;;;11.19;50.12;101987.56;5100668;27;45362;-65
2023/03/27 09:34:23;;;;;;;;;1.00;1.00;;;;;11.24;50.12;101978.78;5101464;27;45392;-65
2023/03/27 09:36:49;;;;;;;;;1.75;0.50;;;;;11.33;49.87;101995.50;5101542;27;46268;-65
2023/03/27 09:39:28;;;;;;;;;0.75;0.75;;;;;11.43;49.81;101995.50;5101035;27;45370;-65
2023/03/27 09:42:05;;;;;;;;;3.00;1.00;;;;;11.49;49.86;101983.22;5117372;27;45346;-65
2023/03/27 09:44:35;;;;;;;;;2.00;2.00;;;;;11.62;50.03;101985.88;5100022;27;45512;-65
2023/03/27 09:47:05;;;;;;;;;1.00;1.00;;;;;11.75;50.00;101994.66;5101027;27;45295;-65
2023/03/27 09:49:31;;;;;;;;;0.50;0.50;;;;;11.86;50.07;102001.72;5081530;27;45465;-65
2023/03/27 09:51:58;;;;;;;;;3.75;2.00;;;;;12.01;50.04;101992.97;5097524;27;45401;-65
2023/03/27 09:54:30;;;;;;;;;3.50;1.00;;;;;12.22;50.15;102000.88;5090444;27;45736;-65
2023/03/27 09:57:05;;;;;;;;;3.00;0.00;;;;;12.40;50.29;101986.78;5101296;27;45781;-65
2023/03/27 09:59:37;;;;;;;;;3.00;2.00;;;;;12.63;50.11;102000.78;5099915;27;45315;-65
2023/03/27 10:02:19;;;;;;;;;1.50;1.50;;;;;12.85;50.33;101995.44;5100928;27;45408;-66
2023/03/27 10:05:00;;;;;;;;;1.00;1.00;;;;;13.04;49.96;101995.34;5101099;27;45217;-65
2023/03/27 10:07:26;;;;;;;;;2.00;0.00;;;;;13.19;50.10;102008.47;5099752;27;46291;-66
2023/03/27 10:10:18;;;;;;;;;0.00;0.00;;;;;13.39;50.00;102018.09;5099507;27;45333;-65
2023/03/27 10:12:52;;;;;;;;;2.00;0.50;;;;;13.54;49.83;102014.50;5101185;27;45258;-67
2023/03/27 10:15:38;;;;;;;;;5.00;2.00;;;;;13.67;49.46;102012.66;5099878;27;45238;-65
2023/03/27 10:18:26;;;;;;;;;1.00;1.00;;;;;13.78;49.45;102011.66;5100426;27;48292;-65
2023/03/27 10:20:58;;;;;;;;;3.00;1.00;;;;;13.90;49.49;102017.75;5100677;27;45339;-65
2023/03/27 10:23:26;;;;;;;;;1.00;1.00;;;;;13.94;49.34;101996.56;5099765;27;45290;-65
2023/03/27 10:25:56;;;;;;;;;1.50;0.00;;;;;14.12;49.46;102006.13;5100706;27;45305;-65
2023/03/27 10:28:26;;;;;;;;;2.75;1.50;;;;;14.24;49.05;102010.41;5100750;27;45283;-65
2023/03/27 10:31:25;;;;;;;;;1.00;1.00;;;;;14.34;48.81;101995.34;5100647;27;45328;-65
2023/03/27 10:33:51;;;;;;;;;1.00;1.00;;;;;14.46;48.85;101989.94;5098769;27;45467;-65
2023/03/27 10:36:17;;;;;;;;;1.00;1.00;;;;;14.57;49.11;102002.16;5100733;27;45580;-65
2023/03/27 10:38:52;;;;;;;;;2.75;1.00;;;;;14.69;49.09;102006.47;5099114;27;46226;-65
2023/03/27 10:41:19;;;;;;;;;4.00;2.25;;;;;14.75;49.12;102002.00;5100355;27;45276;-65
2023/03/27 10:43:46;;;;;;;;;2.00;1.25;;;;;14.80;48.52;102007.22;5099445;27;45325;-65
2023/03/27 10:46:18;;;;;;;;;3.50;1.00;;;;;14.82;48.86;102005.44;5100694;27;45255;-65
2023/03/27 10:49:10;;;;;;;;;0.00;0.00;;;;;14.92;48.71;102014.16;5086729;27;45386;-65
2023/03/27 10:52:29;;;;;;;;;0.25;0.00;;;;;14.98;48.65;102019.38;5076642;28;45253;-65
2023/03/27 10:55:21;;;;;;;;;0.00;0.00;;;;;15.09;48.22;102021.88;5070750;28;45362;-65
2023/03/27 10:57:53;;;;;;;;;0.00;0.00;;;;;15.18;48.72;102020.88;5077115;28;45310;-65
2023/03/27 11:00:34;;;;;;;;;1.00;1.00;;;;;15.27;48.29;102023.41;5076607;28;45192;-65
2023/03/27 11:03:08;;;;;;;;;0.75;0.75;;;;;15.38;48.33;102023.25;5076276;27;46291;-65
2023/03/27 11:05:38;;;;;;;;;1.75;1.00;;;;;15.49;48.76;102026.63;5074502;28;45334;-65
2023/03/27 11:08:32;;;;;;;;;1.00;1.00;;;;;15.62;48.36;102024.66;5076667;27;45534;-65
2023/03/27 11:11:13;;;;;;;;;2.00;0.75;;;;;15.75;48.45;102028.88;5074989;28;45554;-65
2023/03/27 11:13:42;;;;;;;;;2.50;2.25;;;;;15.86;48.42;102036.72;5076510;28;45787;-65
2023/03/27 11:16:19;;;;;;;;;2.00;1.00;;;;;15.95;48.30;102025.09;5076226;27;45450;-65
2023/03/27 11:18:50;;;;;;;;;1.00;1.00;;;;;16.03;48.24;102035.56;5076179;27;45442;-65
2023/03/27 11:21:41;;;;;;;;;2.00;1.00;;;;;16.10;48.14;102029.28;5076213;27;45401;-65
2023/03/27 11:24:16;;;;;;;;;1.00;1.00;;;;;16.11;48.23;102041.59;5076119;28;46112;-65
2023/03/27 11:26:52;;;;;;;;;1.25;0.25;;;;;16.15;48.28;102038.03;5076331;28;45416;-65
2023/03/27 11:29:33;;;;;;;;;3.25;1.00;;;;;16.15;47.88;102040.69;5074724;28;45559;-65
2023/03/27 11:32:06;;;;;;;;;1.00;0.50;;;;;16.15;47.84;102040.69;5074338;28;45658;-64
2023/03/27 11:34:38;;;;;;;;;3.00;3.00;;;;;16.15;47.88;102042.44;5075906;27;45332;-65
2023/03/27 11:37:32;;;;;;;;;2.00;2.00;;;;;16.13;47.57;102042.47;5075615;27;45350;-65
2023/03/27 11:40:08;;;;;;;;;7.25;6.25;;;;;16.17;47.83;102051.25;5075646;27;45350;-65
2023/03/27 11:42:41;;;;;;;;;1.50;1.50;;;;;16.25;47.25;102038.72;5074292;27;45457;-65
2023/03/27 11:45:11;;;;;;;;;0.25;0.00;;;;;16.37;47.39;102042.94;5075822;27;45326;-66